Flight Track Log - Related Links

Times and Time Zones

All times are in EST time to prevent confusion due to time zone crossing. See the DAL1781 flight status page for this flight to view local times or setup timezone preferences in your user account.

Time Position Orientation Groundspeed Altitude Reporting Facility
EST Latitude Longitude Course Direction KTS MPH feet Rate Location/Type
Wed 04:40:08 PM 44.8333 -93.1833 133° Southeast 203 234 3,200  Level Minneapolis TRACON
Wed 04:41:00 PM 44.6784 -93.0282 137° Southeast  Level Estimated
Wed 04:41:08 PM 44.7833 -93.1167 137° Southeast 264 304 5,200  Level Minneapolis TRACON
Wed 04:42:00 PM 44.5764 -92.9319 141° Southeast  Level Estimated
Wed 04:42:25 PM 44.7186 -93.0342 138° Southeast 281 323 7,900  Level Minneapolis Center
Wed 04:43:00 PM 44.4744 -92.8359 133° Southeast  Level Estimated
Wed 04:43:27 PM 44.6608 -92.9419 131° Southeast 311 358 10,000  Level Minneapolis Center
Wed 04:44:00 PM 44.3723 -92.7403 120° Southeast  Level Estimated
Wed 04:44:29 PM 44.5858 -92.8081 128° Southeast 368 423 11,800  Level Minneapolis Center
Wed 04:45:00 PM 44.2702 -92.6450 133° Southeast  Level Estimated
Wed 04:45:30 PM 44.5217 -92.6789 125° Southeast 405 466 13,400  Level Minneapolis Center
Wed 04:51:13 PM 44.1058 -91.8517 125° Southeast 492 566 22,600 1,511 Climbing FlightAware ADS-B (LPVM)
Wed 04:54:34 PM 43.8224 -91.3452 128° Southeast 507 583 27,100 1,219 Climbing FlightAware ADS-B (LPVM)
Wed 04:55:24 PM 43.7386 -91.2289 135° Southeast 523 602 27,700 684 Climbing FlightAware ADS-B (LPVM)
Wed 05:00:16 PM 43.1473 -90.7214 148° Southeast 523 602 31,000 596 Climbing FlightAware ADS-B
Wed 05:00:56 PM 43.0530 -90.6980 170° South 525 604 31,000  Level FlightAware ADS-B
Wed 05:01:32 PM 43.0408 -90.6942 167° South 527 606 31,000  Level FlightAware ADS-B
Wed 05:02:05 PM 42.9069 -90.6478 166° South 527 606 31,000  Level FlightAware ADS-B
Wed 05:02:36 PM 42.8267 -90.6189 165° South 527 606 31,000  Level FlightAware ADS-B
Wed 05:03:16 PM 42.7215 -90.5813 165° South 529 609 31,000  Level FlightAware ADS-B
Wed 05:03:56 PM 42.6428 -90.5533 165° South 530 610 31,000  Level FlightAware ADS-B
Wed 05:04:35 PM 42.5389 -90.5167 165° South 531 611 31,000  Level FlightAware ADS-B
Wed 05:05:15 PM 42.4474 -90.4845 165° South 531 611 31,000  Level FlightAware ADS-B
Wed 05:05:54 PM 42.3661 -90.4561 166° South 531 611 31,000  Level FlightAware ADS-B
Wed 05:06:52 PM 42.3076 -90.4358 166° South 531 611 31,000  Level FlightAware ADS-B (CYQU)
Wed 05:07:44 PM 42.0844 -90.3584 166° South 534 615 31,000  Level FlightAware ADS-B (CYQU)
Wed 05:08:16 PM 42.0080 -90.3318 166° South 535 616 31,000  Level FlightAware ADS-B
Wed 05:08:55 PM 41.9194 -90.3014 166° South 536 617 31,000  Level FlightAware ADS-B (CYQU)
Wed 05:09:28 PM 41.8670 -90.2832 166° South 537 618 31,000  Level FlightAware ADS-B (CYQU)
Wed 05:10:36 PM 41.9430 -90.3095 346° North 538 619 31,000  Level FlightAware ADS-B
Wed 05:13:16 PM 41.2842 -90.0851 166° South 543 625 31,000  Level FlightAware ADS-B
Wed 05:13:57 PM 41.1820 -90.0505 166° South 543 625 31,000  Level FlightAware ADS-B
Wed 05:14:39 PM 41.1782 -90.0492 166° South 543 625 31,000  Level FlightAware ADS-B
Wed 05:16:37 PM 40.8026 -89.8723 160° South 544 626 31,000  Level FlightAware ADS-B
Wed 05:17:29 PM 40.6803 -89.8126 160° South 545 627 31,000  Level FlightAware ADS-B (CYQU)
Wed 05:18:03 PM 40.5983 -89.7731 160° South 546 628 31,000  Level FlightAware ADS-B (CYQU)
Wed 05:19:18 PM 40.4196 -89.6880 160° South 545 627 31,000  Level FlightAware ADS-B (CYQU)
Wed 05:19:57 PM 40.3597 -89.6594 160° South 544 626 31,000  Level FlightAware ADS-B
Wed 05:20:39 PM 40.3597 -89.6594 160° South 545 627 31,000  Level FlightAware ADS-B
Wed 05:22:19 PM 39.9979 -89.4876 160° South 545 627 31,000  Level FlightAware ADS-B
Wed 05:23:04 PM 39.9023 -89.4425 160° South 544 626 31,000  Level FlightAware ADS-B
Wed 05:23:45 PM 39.8016 -89.3952 160° South 544 626 31,000  Level FlightAware ADS-B
Wed 05:24:22 PM 39.7046 -89.3496 160° South 545 627 31,000  Level FlightAware ADS-B
Wed 05:25:02 PM 39.6197 -89.3099 160° South 546 628 31,000  Level FlightAware ADS-B
Wed 05:25:46 PM 39.5501 -89.2745 159° South 543 625 31,000  Level FlightAware ADS-B
Wed 05:26:24 PM 39.4214 -89.1863 152° Southeast 542 624 31,000  Level FlightAware ADS-B
Wed 05:27:03 PM 39.3397 -89.1190 148° Southeast 540 621 31,000  Level FlightAware ADS-B
Wed 05:27:38 PM 39.2666 -89.0583 147° Southeast 540 621 31,000  Level FlightAware ADS-B
Wed 05:28:25 PM 39.1663 -88.9763 148° Southeast 540 621 31,000  Level FlightAware ADS-B
Wed 05:29:02 PM 39.0896 -88.9144 148° Southeast 540 621 31,000  Level FlightAware ADS-B
Wed 05:29:44 PM 38.9979 -88.8411 148° Southeast 541 623 31,000  Level FlightAware ADS-B
Wed 05:30:27 PM 38.9065 -88.7684 148° Southeast 541 623 31,000  Level FlightAware ADS-B
Wed 05:31:07 PM 38.8219 -88.7012 148° Southeast 541 623 31,000  Level FlightAware ADS-B
Wed 05:31:47 PM 38.7375 -88.6344 148° Southeast 543 625 31,000  Level FlightAware ADS-B
Wed 05:32:26 PM 38.6535 -88.5681 148° Southeast 544 626 31,000  Level FlightAware ADS-B
Wed 05:33:07 PM 38.5636 -88.4988 149° Southeast 544 626 31,000  Level FlightAware ADS-B
Wed 05:33:47 PM 38.4783 -88.4334 149° Southeast 542 624 31,000 -367 Level FlightAware ADS-B
Wed 05:34:45 PM 38.3548 -88.3388 149° Southeast 524 603 30,400 -1,140 Descending FlightAware ADS-B
Wed 05:35:27 PM 38.2711 -88.2744 149° Southeast 531 611 29,100 -1,037 Descending FlightAware ADS-B
Wed 05:36:06 PM 38.1850 -88.2082 149° Southeast 539 620 29,000 -74 Descending FlightAware ADS-B
Wed 05:36:48 PM 38.0936 -88.1388 149° Southeast 538 619 29,000  Level FlightAware ADS-B
Wed 05:37:31 PM 38.0019 -88.0692 149° Southeast 539 620 29,000  Level FlightAware ADS-B
Wed 05:38:48 PM 38.0019 -88.0692 149° Southeast 540 621 29,000  Level FlightAware ADS-B
Wed 05:43:21 PM 37.2692 -87.5186 149° Southeast 540 621 29,000  Level FlightAware ADS-B (KIXA)
Wed 05:48:33 PM 36.5829 -87.0123 149° Southeast 534 615 29,000  Level FlightAware ADS-B (KIXA)
Wed 05:49:28 PM 36.5070 -86.9569 150° Southeast 527 606 29,000  Level FlightAware ADS-B (KIXA)
Wed 05:50:26 PM 36.3619 -86.8467 150° Southeast 525 604 29,000  Level Indianapolis Center
Wed 05:51:28 PM 36.2383 -86.7581 150° Southeast 514 592 29,000  Level Indianapolis Center
Wed 05:52:25 PM 36.1344 -86.6825 150° Southeast 511 588 29,000  Level Memphis Center
Wed 05:53:27 PM 35.9967 -86.5686 146° Southeast 507 583 29,000  Level Memphis Center
Wed 05:54:29 PM 35.8775 -86.4744 147° Southeast 503 579 29,000  Level Memphis Center
Wed 05:55:31 PM 35.7600 -86.3794 147° Southeast 502 578 29,000  Level Memphis Center
Wed 05:56:33 PM 35.6444 -86.2869 147° Southeast 494 568 29,000  Level Memphis Center
Wed 05:57:27 PM 35.5428 -86.2056 147° Southeast 508 585 29,000  Level Atlanta Center
Wed 05:58:27 PM 35.4297 -86.1136 146° Southeast 498 573 29,000  Level Atlanta Center
Wed 05:59:27 PM 35.3164 -86.0217 146° Southeast 493 567 29,000  Level Atlanta Center
Wed 06:00:27 PM 35.2008 -85.9322 148° Southeast 493 567 29,000  Level Atlanta Center
Wed 06:01:27 PM 35.0792 -85.8358 147° Southeast 488 562 29,000  Level Atlanta Center
Wed 06:02:27 PM 34.9700 -85.7497 147° Southeast 483 556 29,000  Level Atlanta Center
Wed 06:03:27 PM 34.8606 -85.6614 146° Southeast 478 550 29,000 -250 Level Atlanta Center
Wed 06:04:27 PM 34.7489 -85.5783 149° Southeast 472 543 28,500 -800 Descending Atlanta Center
Wed 06:05:27 PM 34.6394 -85.4906 147° Southeast 472 543 27,400 -1,750 Descending Atlanta Center
Wed 06:06:27 PM 34.5317 -85.4106 149° Southeast 472 543 25,000 -2,400 Descending Atlanta Center
Wed 06:07:27 PM 34.4283 -85.3281 147° Southeast 467 537 22,600 -2,300 Descending Atlanta Center
Wed 06:08:27 PM 34.3414 -85.2539 145° Southeast 445 512 20,400 -2,250 Descending Atlanta Center
Wed 06:09:27 PM 34.2461 -85.1847 149° Southeast 420 483 18,100 -2,200 Descending Atlanta Center
Wed 06:10:27 PM 34.1592 -85.1108 145° Southeast 398 458 16,000 -2,000 Descending Atlanta Center
Wed 06:11:27 PM 34.0867 -85.0219 135° Southeast 379 436 14,100 -1,000 Descending Atlanta Center
Wed 06:12:27 PM 34.0228 -84.9386 133° Southeast 348 400 14,000 -500 Descending Atlanta Center
Wed 06:13:27 PM 33.9586 -84.8578 134° Southeast 313 360 13,100 -450 Descending Atlanta Center
Wed 06:14:27 PM 33.8983 -84.7847 135° Southeast 303 349 13,100  Level Atlanta Center
Wed 06:15:23 PM 33.8500 -84.7167 131° Southeast 305 351 13,100 -155 Level Atlanta TRACON
Wed 06:16:23 PM 33.7833 -84.6500 140° Southeast 305 351 12,800 -1,000 Descending Atlanta TRACON
Wed 06:17:23 PM 33.7333 -84.5667 126° Southeast 307 353 11,100 -1,400 Descending Atlanta TRACON
Wed 06:18:23 PM 33.7333 -84.4667 90° East 298 343 10,000 -1,316 Descending Atlanta TRACON
Wed 06:19:17 PM 33.7333 -84.3833 90° East 264 304 8,600 -1,789 Descending Atlanta TRACON
Wed 06:20:17 PM 33.7333 -84.3000 90° East 245 282 6,600 -1,700 Descending Atlanta TRACON
Wed 06:21:17 PM 33.7333 -84.2167 90° East 239 275 5,200 -789 Descending Atlanta TRACON
Wed 06:22:11 PM 33.7333 -84.1500 90° East 209 241 5,100 -50 Descending Atlanta TRACON
Wed 06:23:17 PM 33.7000 -84.1167 140° Southeast 202 232 5,100  Level Atlanta TRACON
Wed 06:24:11 PM 33.6667 -84.1333 203° Southwest 172 198 5,100 -105 Level Atlanta TRACON
Wed 06:25:11 PM 33.6500 -84.1833 248° West 167 192 4,900 -571 Descending Atlanta TRACON
Wed 06:26:17 PM 33.6500 -84.2500 270° West 161 185 3,900 -905 Descending Atlanta TRACON
Wed 06:27:17 PM 33.6500 -84.3000 270° West 162 186 3,000 -850 Descending Atlanta TRACON
Wed 06:28:17 PM 33.6500 -84.3500 270° West 132 152 2,200 -793 Descending Atlanta TRACON
Wed 06:29:18 PM 33.6500 -84.3833 270° West 141 162 1,400 -787 Descending Atlanta TRACON

Login

Don't have an account? Register now (free) for customized features, flight alerts, and more!